Time;durP1;ratioP1;P1;durP2;ratioP2;P2;SDS_P1;SDS_P2;PMS_P1;PMS_P2;Temp;Humidity;BMP_temperature;BMP_pressure;BME280_temperature;BME280_humidity;BME280_pressure;Samples;Min_cycle;Max_cycle;Signal;HPM_P1;HPM_P2
2022/09/30 00:00:08;;;;;;;13.85;7.18;;;7.60;99.90;;;;;;5046538;28;20032;-68
2022/09/30 00:02:33;;;;;;;9.60;6.00;;;7.60;99.90;;;;;;5041736;28;20666;-66
2022/09/30 00:04:59;;;;;;;8.75;6.20;;;7.60;99.90;;;;;;5042783;28;20056;-67
2022/09/30 00:07:25;;;;;;;12.90;6.85;;;7.60;99.90;;;;;;5047567;28;20394;-67
2022/09/30 00:09:50;;;;;;;10.52;6.28;;;7.70;99.90;;;;;;5053793;28;20031;-66
2022/09/30 00:12:16;;;;;;;10.73;6.20;;;7.70;99.90;;;;;;5052218;28;20081;-69
2022/09/30 00:14:42;;;;;;;12.00;6.22;;;7.70;99.90;;;;;;5044174;28;20037;-67
2022/09/30 00:17:07;;;;;;;8.13;5.63;;;7.70;99.90;;;;;;5044548;28;20477;-66
2022/09/30 00:19:33;;;;;;;10.43;7.03;;;7.80;99.90;;;;;;5041514;28;20017;-67
2022/09/30 00:21:59;;;;;;;8.40;5.57;;;7.70;99.90;;;;;;5047520;28;20116;-67
2022/09/30 00:24:24;;;;;;;9.88;6.10;;;7.80;99.90;;;;;;5046252;28;20036;-67
2022/09/30 00:26:50;;;;;;;10.02;5.97;;;7.70;99.90;;;;;;5044173;28;20044;-67
2022/09/30 00:29:15;;;;;;;7.75;5.55;;;7.80;99.90;;;;;;5043128;28;20056;-68
2022/09/30 00:31:41;;;;;;;7.68;6.03;;;7.80;99.90;;;;;;5045120;28;20028;-66
2022/09/30 00:34:07;;;;;;;9.35;6.82;;;7.80;99.90;;;;;;5040841;28;20474;-67
2022/09/30 00:36:54;;;;;;;14.43;6.90;;;7.80;99.90;;;;;;5046219;28;20044;-68
2022/09/30 00:39:25;;;;;;;11.38;6.78;;;7.90;99.90;;;;;;5045177;28;20033;-67
2022/09/30 00:41:57;;;;;;;7.68;5.65;;;7.90;99.90;;;;;;5056311;28;20029;-67
2022/09/30 00:44:44;;;;;;;8.73;6.00;;;7.90;99.90;;;;;;5038372;28;20056;-67
2022/09/30 00:47:35;;;;;;;12.15;6.90;;;7.90;99.90;;;;;;5046637;28;20094;-67
2022/09/30 00:50:13;;;;;;;8.73;6.40;;;7.90;99.90;;;;;;5039677;28;20030;-67
2022/09/30 00:52:39;;;;;;;9.05;6.47;;;7.90;99.90;;;;;;5053474;28;20039;-67
2022/09/30 00:55:14;;;;;;;8.23;5.78;;;7.90;99.90;;;;;;5042198;28;20025;-67
2022/09/30 00:57:40;;;;;;;14.82;6.57;;;8.00;99.90;;;;;;5044529;28;20513;-66
2022/09/30 01:00:06;;;;;;;10.00;5.82;;;7.90;99.90;;;;;;5042306;28;20049;-67
2022/09/30 01:02:32;;;;;;;9.50;5.95;;;8.00;99.90;;;;;;5043667;28;20114;-66
2022/09/30 01:04:58;;;;;;;9.32;5.90;;;8.00;99.90;;;;;;5047239;28;20078;-67
2022/09/30 01:07:24;;;;;;;9.05;6.25;;;8.00;99.90;;;;;;5045494;28;20048;-67
2022/09/30 01:09:51;;;;;;;7.43;6.13;;;8.00;99.90;;;;;;5042938;28;20030;-67
2022/09/30 01:12:21;;;;;;;10.38;6.63;;;8.00;99.90;;;;;;5043035;28;20496;-69
2022/09/30 01:14:52;;;;;;;8.00;5.68;;;8.10;99.90;;;;;;5047476;28;20407;-66
2022/09/30 01:17:17;;;;;;;;;;;8.10;99.90;;;;;;5044797;28;20091;-67
2022/09/30 01:20:11;;;;;;;12.27;6.65;;;8.10;99.90;;;;;;5040732;28;19942;-67
2022/09/30 01:22:44;;;;;;;9.82;6.35;;;8.20;99.90;;;;;;5045333;28;20025;-67
2022/09/30 01:25:25;;;;;;;15.85;6.95;;;8.20;99.90;;;;;;5039760;28;20025;-66
2022/09/30 01:28:17;;;;;;;11.32;6.93;;;8.20;99.90;;;;;;5042994;28;20080;-68
2022/09/30 01:31:03;;;;;;;12.20;7.53;;;8.20;99.90;;;;;;5042737;28;20087;-68
2022/09/30 01:34:00;;;;;;;11.00;6.93;;;8.20;99.90;;;;;;5042263;28;20037;-67
2022/09/30 01:36:59;;;;;;;10.77;6.90;;;8.20;99.90;;;;;;5038829;28;20168;-66
2022/09/30 01:39:52;;;;;;;11.63;7.40;;;8.20;99.90;;;;;;5042969;28;20124;-66
2022/09/30 01:42:18;;;;;;;12.35;6.53;;;8.20;99.90;;;;;;5038335;28;20039;-67
2022/09/30 01:44:53;;;;;;;11.00;7.38;;;8.20;99.90;;;;;;5043710;28;20043;-67
2022/09/30 01:47:25;;;;;;;12.77;7.32;;;8.20;99.90;;;;;;5039582;28;20037;-68
2022/09/30 01:50:00;;;;;;;12.25;8.52;;;8.20;99.90;;;;;;5041479;28;20044;-67
2022/09/30 01:52:43;;;;;;;17.73;7.82;;;8.10;99.90;;;;;;5041629;28;20433;-66
2022/09/30 01:55:26;;;;;;;11.73;7.50;;;8.20;99.90;;;;;;5035580;28;20087;-67
2022/09/30 01:58:16;;;;;;;11.77;7.43;;;8.20;99.90;;;;;;5039965;28;20037;-67
2022/09/30 02:00:48;;;;;;;8.95;6.60;;;8.10;99.90;;;;;;5038654;28;20039;-66
2022/09/30 02:03:37;;;;;;;13.82;7.88;;;8.10;99.90;;;;;;5042075;28;20037;-68
2022/09/30 02:06:19;;;;;;;14.13;7.57;;;8.10;99.90;;;;;;5038209;28;20178;-67
2022/09/30 02:08:47;;;;;;;13.65;7.43;;;8.10;99.90;;;;;;5042468;28;20139;-67
2022/09/30 02:11:18;;;;;;;13.93;7.95;;;8.10;99.90;;;;;;5039542;28;20052;-69
2022/09/30 02:13:51;;;;;;;15.32;9.00;;;8.10;99.90;;;;;;5036062;28;20381;-67
2022/09/30 02:16:23;;;;;;;10.13;6.97;;;8.10;99.90;;;;;;5043423;28;20542;-69
2022/09/30 02:19:21;;;;;;;11.75;7.75;;;8.10;99.90;;;;;;5044093;28;20061;-68
2022/09/30 02:21:57;;;;;;;10.38;6.95;;;8.10;99.90;;;;;;5023704;28;20037;-67
2022/09/30 02:24:25;;;;;;;12.55;8.18;;;8.10;99.90;;;;;;5038421;28;20486;-67
2022/09/30 02:26:53;;;;;;;12.15;7.93;;;8.00;99.90;;;;;;5049721;28;20037;-67
2022/09/30 02:29:27;;;;;;;11.25;8.75;;;8.00;99.90;;;;;;5043062;28;20056;-66
2022/09/30 02:32:02;;;;;;;14.32;8.82;;;8.00;99.90;;;;;;5044300;28;20035;-67
2022/09/30 02:34:36;;;;;;;9.88;7.10;;;8.00;99.90;;;;;;5049917;28;20028;-68
2022/09/30 02:37:27;;;;;;;16.45;8.73;;;8.00;99.90;;;;;;5039308;28;20037;-67
2022/09/30 02:40:00;;;;;;;;;;;8.00;99.90;;;;;;5042791;28;20505;-67
2022/09/30 02:42:28;;;;;;;14.85;8.13;;;7.90;99.90;;;;;;5037507;28;20290;-68
2022/09/30 02:45:01;;;;;;;11.77;7.57;;;7.90;99.90;;;;;;5044227;28;20024;-68
2022/09/30 02:47:33;;;;;;;11.77;8.38;;;7.90;99.90;;;;;;5044452;28;20029;-67
2022/09/30 02:50:41;;;;;;;11.55;7.35;;;7.80;99.90;;;;;;5045489;28;20021;-67
2022/09/30 02:53:17;;;;;;;17.23;8.85;;;7.70;99.90;;;;;;5041383;28;20025;-67
2022/09/30 02:56:11;;;;;;;17.83;8.45;;;7.70;99.90;;;;;;5037035;28;20029;-67
2022/09/30 02:58:38;;;;;;;12.60;8.00;;;7.70;99.90;;;;;;5040313;28;20029;-67
2022/09/30 03:01:07;;;;;;;13.65;8.32;;;7.70;99.90;;;;;;5033385;28;20375;-66
2022/09/30 03:03:41;;;;;;;20.65;8.48;;;7.60;99.90;;;;;;5044615;28;20121;-67
2022/09/30 03:06:08;;;;;;;17.67;9.43;;;7.60;99.90;;;;;;5040278;28;20083;-66
2022/09/30 03:08:34;;;;;;;15.70;8.88;;;7.60;99.90;;;;;;5035655;28;20040;-67
2022/09/30 03:11:00;;;;;;;15.00;8.90;;;7.60;99.90;;;;;;5040246;28;20037;-68
2022/09/30 03:14:05;;;;;;;15.82;8.70;;;7.60;99.90;;;;;;5022364;28;20381;-67
2022/09/30 03:16:40;;;;;;;17.63;10.00;;;7.60;99.90;;;;;;5041950;28;20037;-66
2022/09/30 03:19:18;;;;;;;15.18;9.35;;;7.60;99.90;;;;;;5046729;28;20079;-66
2022/09/30 03:22:14;;;;;;;16.10;8.93;;;7.50;99.90;;;;;;5033012;28;20084;-67
2022/09/30 03:25:04;;;;;;;17.88;9.98;;;7.50;99.90;;;;;;5044358;28;20115;-66
2022/09/30 03:27:46;;;;;;;16.48;9.40;;;7.40;99.90;;;;;;5041416;28;20064;-66
2022/09/30 03:30:18;;;;;;;16.05;9.38;;;7.40;99.90;;;;;;5039469;28;20033;-67
2022/09/30 03:32:56;;;;;;;14.60;10.00;;;7.40;99.90;;;;;;5043871;28;20033;-67
2022/09/30 03:35:45;;;;;;;22.15;10.57;;;7.30;99.90;;;;;;5043224;28;20045;-67
2022/09/30 03:38:22;;;;;;;16.33;9.65;;;7.20;99.90;;;;;;5041459;28;20032;-66
2022/09/30 03:41:07;;;;;;;16.65;9.30;;;7.20;99.90;;;;;;5048922;28;20086;-67
2022/09/30 03:43:49;;;;;;;14.45;9.25;;;7.20;99.90;;;;;;5041172;28;20081;-68
2022/09/30 03:46:24;;;;;;;11.60;8.25;;;7.10;99.90;;;;;;5039009;28;20401;-70
2022/09/30 03:48:55;;;;;;;13.00;8.98;;;7.10;99.90;;;;;;5047607;28;20021;-67
2022/09/30 03:51:23;;;;;;;13.30;8.82;;;7.10;99.90;;;;;;5046153;28;20112;-67
2022/09/30 03:53:49;;;;;;;13.20;9.02;;;7.00;99.90;;;;;;5039957;28;20056;-67
2022/09/30 03:56:27;;;;;;;16.15;10.45;;;7.00;99.90;;;;;;5042163;28;20169;-68
2022/09/30 03:58:53;;;;;;;15.80;9.43;;;7.00;99.90;;;;;;5049079;28;20029;-67
2022/09/30 04:01:20;;;;;;;14.25;9.20;;;6.90;99.90;;;;;;5046045;28;20435;-66
2022/09/30 04:03:47;;;;;;;14.68;9.48;;;6.90;99.90;;;;;;5039090;28;20034;-66
2022/09/30 04:06:14;;;;;;;20.00;11.75;;;6.80;99.90;;;;;;5039242;28;20092;-68
2022/09/30 04:08:39;;;;;;;18.10;10.60;;;6.80;99.90;;;;;;5041453;28;20067;-66
2022/09/30 04:11:05;;;;;;;17.98;10.65;;;6.80;99.90;;;;;;5044211;28;20053;-66
2022/09/30 04:13:31;;;;;;;16.85;10.75;;;6.80;99.90;;;;;;5038241;28;20393;-67
2022/09/30 04:15:57;;;;;;;16.48;10.35;;;6.80;99.90;;;;;;5039827;28;20296;-67
2022/09/30 04:18:23;;;;;;;21.83;10.70;;;6.80;99.90;;;;;;5023258;28;20028;-67
2022/09/30 04:20:49;;;;;;;20.23;10.88;;;6.80;99.90;;;;;;5045445;28;20044;-67
2022/09/30 04:23:14;;;;;;;15.57;9.15;;;6.90;99.90;;;;;;5042380;28;20030;-68
2022/09/30 04:25:40;;;;;;;16.15;10.68;;;6.90;99.90;;;;;;5046465;28;20032;-67
2022/09/30 04:28:06;;;;;;;18.70;9.80;;;6.90;99.90;;;;;;5032712;28;20041;-67
2022/09/30 04:30:31;;;;;;;15.27;9.93;;;6.90;99.90;;;;;;5038485;28;20033;-67
2022/09/30 04:32:57;;;;;;;14.68;9.20;;;6.90;99.90;;;;;;5042410;28;20029;-67
2022/09/30 04:35:22;;;;;;;13.88;9.82;;;6.90;99.90;;;;;;5043279;28;20406;-67
2022/09/30 04:37:48;;;;;;;17.20;10.23;;;6.90;99.90;;;;;;5046936;28;20111;-67
2022/09/30 04:40:15;;;;;;;18.23;10.07;;;6.90;99.90;;;;;;5041377;28;20036;-71
2022/09/30 04:42:41;;;;;;;16.30;10.02;;;6.80;99.90;;;;;;5036726;28;20104;-69
2022/09/30 04:45:12;;;;;;;16.52;10.05;;;6.80;99.90;;;;;;5040443;28;20107;-68
2022/09/30 04:47:37;;;;;;;17.55;10.10;;;6.80;99.90;;;;;;5046519;28;20048;-68
2022/09/30 04:50:04;;;;;;;16.52;9.23;;;6.70;99.90;;;;;;5043030;28;20029;-69
2022/09/30 04:52:30;;;;;;;14.88;9.32;;;6.60;99.90;;;;;;5034977;28;20033;-67
2022/09/30 04:54:57;;;;;;;20.17;10.50;;;6.60;99.90;;;;;;5043734;28;20437;-68
2022/09/30 04:57:22;;;;;;;18.05;11.30;;;6.50;99.90;;;;;;5048089;28;20411;-67
2022/09/30 04:59:49;;;;;;;18.45;11.85;;;6.50;99.90;;;;;;5048193;28;20029;-67
2022/09/30 05:02:15;;;;;;;14.35;10.52;;;6.50;99.90;;;;;;5037391;28;20096;-68
2022/09/30 05:04:41;;;;;;;15.20;9.60;;;6.40;99.90;;;;;;5042122;28;20474;-66
2022/09/30 05:07:07;;;;;;;19.15;12.27;;;6.40;99.90;;;;;;5043115;28;20040;-66
2022/09/30 05:09:34;;;;;;;17.85;11.55;;;6.30;99.90;;;;;;5041397;28;20029;-66
2022/09/30 05:12:01;;;;;;;16.67;10.80;;;6.30;99.90;;;;;;5043677;28;20033;-66
2022/09/30 05:14:28;;;;;;;14.35;10.98;;;6.30;99.90;;;;;;5043133;28;20466;-68
2022/09/30 05:16:54;;;;;;;23.52;12.80;;;6.20;99.90;;;;;;5049814;28;20047;-66
2022/09/30 05:19:19;;;;;;;18.88;12.43;;;6.20;99.90;;;;;;5043833;28;20025;-67
2022/09/30 05:21:45;;;;;;;20.67;13.10;;;6.20;99.90;;;;;;5045878;28;20473;-66
2022/09/30 05:24:11;;;;;;;21.48;13.20;;;6.20;99.90;;;;;;5047285;28;20044;-67
2022/09/30 05:26:39;;;;;;;23.63;13.60;;;6.30;99.90;;;;;;5034010;28;20120;-67
2022/09/30 05:29:05;;;;;;;21.05;12.75;;;6.20;99.90;;;;;;5043864;28;20462;-67
2022/09/30 05:31:31;;;;;;;16.10;11.82;;;6.20;99.90;;;;;;5038294;28;20029;-67
2022/09/30 05:33:56;;;;;;;18.50;12.25;;;6.30;99.90;;;;;;5042804;28;20033;-66
2022/09/30 05:36:22;;;;;;;17.33;12.48;;;6.20;99.90;;;;;;5041899;28;20493;-68
2022/09/30 05:38:51;;;;;;;18.80;12.50;;;6.20;99.90;;;;;;5034382;28;20474;-67
2022/09/30 05:41:18;;;;;;;20.73;13.95;;;6.10;99.90;;;;;;5050212;28;20036;-70
2022/09/30 05:43:45;;;;;;;22.65;14.55;;;6.20;99.90;;;;;;5043098;28;20052;-66
2022/09/30 05:46:11;;;;;;;25.17;13.88;;;6.20;99.90;;;;;;5040954;28;20057;-66
2022/09/30 05:48:37;;;;;;;23.75;13.82;;;6.20;99.90;;;;;;5045267;28;20083;-67
2022/09/30 05:51:02;;;;;;;25.00;16.30;;;6.20;99.90;;;;;;5046130;28;20033;-67
2022/09/30 05:53:30;;;;;;;24.00;14.93;;;6.30;99.90;;;;;;5043440;28;20167;-67
2022/09/30 05:55:56;;;;;;;28.60;15.77;;;6.30;99.90;;;;;;5044841;28;20359;-67
2022/09/30 05:58:23;;;;;;;22.13;14.68;;;6.40;99.90;;;;;;5042702;28;20436;-68
2022/09/30 06:00:49;;;;;;;27.30;16.52;;;6.40;99.90;;;;;;5034105;28;20037;-68
2022/09/30 06:03:16;;;;;;;27.25;15.48;;;6.40;99.90;;;;;;5041688;28;20106;-75
2022/09/30 06:05:44;;;;;;;28.95;17.88;;;6.40;99.90;;;;;;5041168;28;20091;-67
2022/09/30 06:08:10;;;;;;;23.52;15.02;;;6.50;99.90;;;;;;5048254;28;20131;-67
2022/09/30 06:10:39;;;;;;;25.23;16.77;;;6.50;99.90;;;;;;5050463;28;20269;-68
2022/09/30 06:13:06;;;;;;;26.65;16.85;;;6.50;99.90;;;;;;5041902;28;20115;-68
2022/09/30 06:15:32;;;;;;;22.08;14.85;;;6.60;99.90;;;;;;5039051;28;20109;-68
2022/09/30 06:17:57;;;;;;;29.27;16.50;;;6.60;99.90;;;;;;5037324;28;20128;-68
2022/09/30 06:20:23;;;;;;;23.15;16.10;;;6.70;99.90;;;;;;5039415;28;20038;-69
2022/09/30 06:22:49;;;;;;;23.75;16.05;;;6.80;99.90;;;;;;5047147;28;20029;-70
2022/09/30 06:25:14;;;;;;;24.85;15.60;;;6.80;99.90;;;;;;5040708;28;20037;-73
2022/09/30 06:27:44;;;;;;;23.33;15.85;;;7.00;99.90;;;;;;5042373;28;20500;-69
2022/09/30 06:30:10;;;;;;;24.73;15.23;;;7.00;99.90;;;;;;5043735;28;20029;-69
2022/09/30 06:32:35;;;;;;;20.40;15.45;;;7.10;99.90;;;;;;5040326;28;20507;-68
2022/09/30 06:35:02;;;;;;;20.35;14.20;;;7.10;99.90;;;;;;5045238;28;20454;-69
2022/09/30 06:37:28;;;;;;;21.10;14.05;;;7.20;99.90;;;;;;5032347;28;20168;-69
2022/09/30 06:39:54;;;;;;;22.17;15.38;;;7.30;99.90;;;;;;5046927;28;20104;-68
2022/09/30 06:42:20;;;;;;;22.58;15.00;;;7.40;99.90;;;;;;5049027;28;20040;-69
2022/09/30 06:44:45;;;;;;;21.25;14.50;;;7.50;99.90;;;;;;5034614;28;20394;-68
2022/09/30 06:47:14;;;;;;;18.17;13.73;;;7.50;99.90;;;;;;5048379;28;20055;-69
2022/09/30 06:49:41;;;;;;;23.17;14.20;;;7.70;99.90;;;;;;5040332;28;20036;-70
2022/09/30 06:52:11;;;;;;;21.27;13.75;;;7.70;99.90;;;;;;5042812;28;20111;-69
2022/09/30 06:54:38;;;;;;;24.25;13.57;;;7.80;99.90;;;;;;5042483;28;20045;-68
2022/09/30 06:57:03;;;;;;;18.52;12.73;;;7.90;99.90;;;;;;5042383;28;20049;-68
2022/09/30 06:59:29;;;;;;;19.33;13.32;;;8.00;99.90;;;;;;5050016;28;20021;-68
2022/09/30 07:01:55;;;;;;;21.92;13.88;;;8.10;99.90;;;;;;5037084;28;20061;-69
2022/09/30 07:04:20;;;;;;;22.60;14.48;;;8.10;99.90;;;;;;5017954;28;20029;-69
2022/09/30 07:06:46;;;;;;;24.33;14.98;;;8.20;99.90;;;;;;5040847;28;20612;-69
2022/09/30 07:09:12;;;;;;;23.33;15.63;;;8.10;99.90;;;;;;5044302;28;20031;-68
2022/09/30 07:11:38;;;;;;;31.60;16.27;;;8.20;99.90;;;;;;5042920;28;20040;-68
2022/09/30 07:14:07;;;;;;;18.70;13.75;;;8.20;99.90;;;;;;5034640;28;20037;-69
2022/09/30 07:16:33;;;;;;;19.52;14.02;;;8.20;99.90;;;;;;5046204;28;20583;-68
2022/09/30 07:19:03;;;;;;;17.42;12.65;;;8.30;99.90;;;;;;5046448;28;20039;-69
2022/09/30 07:21:30;;;;;;;18.17;12.73;;;8.40;99.90;;;;;;5040514;28;20543;-68
2022/09/30 07:23:58;;;;;;;18.67;13.48;;;8.50;99.90;;;;;;5040852;28;20083;-69
2022/09/30 07:26:25;;;;;;;19.70;12.65;;;8.50;99.90;;;;;;5036926;28;20477;-68
2022/09/30 07:28:51;;;;;;;21.23;13.18;;;8.60;99.90;;;;;;5042812;28;20103;-69
2022/09/30 07:31:23;;;;;;;19.42;12.48;;;8.70;99.90;;;;;;5032155;28;20040;-71
2022/09/30 07:33:52;;;;;;;16.75;12.55;;;8.80;99.90;;;;;;5037592;28;20025;-68
2022/09/30 07:36:26;;;;;;;18.00;13.30;;;8.90;99.90;;;;;;5048509;28;20033;-69
2022/09/30 07:38:59;;;;;;;16.30;13.07;;;9.00;99.90;;;;;;5039845;28;20030;-69
2022/09/30 07:41:27;;;;;;;13.40;10.98;;;9.10;99.90;;;;;;5047131;28;20359;-69
2022/09/30 07:43:57;;;;;;;15.27;12.30;;;9.20;99.90;;;;;;5038537;28;20068;-69
2022/09/30 07:46:27;;;;;;;15.60;11.32;;;9.30;99.90;;;;;;5033700;28;20041;-69
2022/09/30 07:48:56;;;;;;;15.25;10.88;;;9.50;99.90;;;;;;5037487;28;20041;-68
2022/09/30 07:51:28;;;;;;;14.23;11.38;;;9.60;99.90;;;;;;5030880;28;20029;-69
2022/09/30 07:54:00;;;;;;;16.67;12.48;;;9.80;99.90;;;;;;5039285;28;20053;-69
2022/09/30 07:56:28;;;;;;;19.73;14.27;;;10.00;99.90;;;;;;5048830;28;20029;-68
2022/09/30 07:58:59;;;;;;;18.55;13.43;;;10.20;99.90;;;;;;5042698;28;20025;-68
2022/09/30 08:01:27;;;;;;;17.70;13.18;;;10.40;99.90;;;;;;5042133;28;20036;-68
2022/09/30 08:03:57;;;;;;;21.77;14.43;;;10.60;99.90;;;;;;5020714;28;20516;-68
2022/09/30 08:06:27;;;;;;;17.80;13.55;;;10.80;99.90;;;;;;5037711;28;20033;-68
2022/09/30 08:08:55;;;;;;;18.38;13.57;;;10.90;99.90;;;;;;5034069;28;20041;-68
2022/09/30 08:11:21;;;;;;;18.17;13.75;;;11.00;99.90;;;;;;5044683;28;20051;-68
2022/09/30 08:13:55;;;;;;;25.75;15.10;;;11.00;99.90;;;;;;5036118;28;20494;-68
2022/09/30 08:16:22;;;;;;;19.60;13.70;;;11.10;99.90;;;;;;5030140;28;20401;-68
2022/09/30 08:18:48;;;;;;;18.70;14.68;;;11.20;99.90;;;;;;5044391;28;20029;-68
2022/09/30 08:21:14;;;;;;;20.15;13.70;;;11.20;99.90;;;;;;5040262;28;20035;-71
2022/09/30 08:23:40;;;;;;;20.73;13.80;;;11.30;99.90;;;;;;5041366;28;20029;-68
2022/09/30 08:26:08;;;;;;;18.60;14.27;;;11.20;99.90;;;;;;5050165;28;20466;-67
2022/09/30 08:28:34;;;;;;;17.35;13.30;;;11.20;99.90;;;;;;5045643;28;20104;-68
2022/09/30 08:31:10;;;;;;;21.52;14.05;;;11.20;99.90;;;;;;5042832;28;20030;-68
2022/09/30 08:33:36;;;;;;;20.42;13.52;;;11.30;99.90;;;;;;5042465;28;20041;-68
2022/09/30 08:36:17;;;;;;;19.75;14.18;;;11.30;99.90;;;;;;5037860;28;20040;-69
2022/09/30 08:38:42;;;;;;;22.08;14.10;;;11.40;99.90;;;;;;5038433;28;20040;-69
2022/09/30 08:41:37;;;;;;;20.73;13.70;;;11.30;99.90;;;;;;5043087;28;20021;-68
2022/09/30 08:44:18;;;;;;;23.17;14.93;;;11.30;99.90;;;;;;5040846;28;20474;-68
2022/09/30 08:47:14;;;;;;;25.30;14.23;;;11.20;99.90;;;;;;5035122;28;20422;-68
2022/09/30 08:49:49;;;;;;;20.65;14.55;;;11.10;99.90;;;;;;5047558;28;20075;-69
2022/09/30 08:52:27;;;;;;;24.48;15.23;;;11.10;99.90;;;;;;5037833;28;20079;-73
2022/09/30 08:54:55;;;;;;;22.88;15.60;;;10.90;99.90;;;;;;5043047;28;20446;-69
2022/09/30 08:57:22;;;;;;;23.13;15.88;;;10.90;99.90;;;;;;5052902;28;20386;-69
2022/09/30 08:59:54;;;;;;;27.80;16.02;;;10.80;99.90;;;;;;5036812;28;20032;-67
2022/09/30 09:02:26;;;;;;;23.88;17.02;;;10.70;99.90;;;;;;5033335;28;20029;-67
2022/09/30 09:04:56;;;;;;;23.65;17.08;;;10.70;99.90;;;;;;5053920;28;20033;-68
2022/09/30 09:07:37;;;;;;;26.02;18.05;;;10.80;99.90;;;;;;5053745;28;20044;-68
2022/09/30 09:10:26;;;;;;;25.98;15.98;;;10.90;99.90;;;;;;5034485;28;20113;-68
2022/09/30 09:13:01;;;;;;;29.63;17.80;;;10.90;99.90;;;;;;5034798;28;20034;-68
2022/09/30 09:15:52;;;;;;;28.73;17.35;;;10.90;99.90;;;;;;5052067;28;20021;-68
2022/09/30 09:18:40;;;;;;;26.45;17.60;;;11.10;99.90;;;;;;5033237;28;20394;-72
2022/09/30 09:21:36;;;;;;;24.58;17.45;;;11.30;99.90;;;;;;5053493;28;20033;-69
2022/09/30 09:24:04;;;;;;;22.60;16.85;;;11.50;99.90;;;;;;5053509;28;20036;-68
2022/09/30 09:26:35;;;;;;;24.77;16.80;;;11.60;99.90;;;;;;5053221;28;20516;-68
2022/09/30 09:29:28;;;;;;;24.85;16.80;;;11.90;99.90;;;;;;5039907;28;20032;-68
2022/09/30 09:31:54;;;;;;;26.27;16.98;;;12.10;99.90;;;;;;5053558;28;20450;-68
2022/09/30 09:34:23;;;;;;;24.95;17.23;;;12.20;99.90;;;;;;5052887;28;20096;-68
2022/09/30 09:37:00;;;;;;;25.08;16.42;;;12.30;99.90;;;;;;5053905;28;20025;-68
2022/09/30 09:39:58;;;;;;;24.10;16.38;;;12.40;99.90;;;;;;5051385;28;20388;-69
2022/09/30 09:42:44;;;;;;;26.42;16.00;;;12.50;99.90;;;;;;5052865;28;20381;-69
2022/09/30 09:45:34;;;;;;;22.38;14.98;;;12.60;99.90;;;;;;5049996;28;20033;-68
2022/09/30 09:48:00;;;;;;;29.85;16.38;;;12.60;99.90;;;;;;5033821;28;20029;-68
2022/09/30 09:50:52;;;;;;;18.55;13.70;;;12.70;99.90;;;;;;5033078;28;20032;-70
2022/09/30 09:53:38;;;;;;;17.92;12.23;;;12.80;99.90;;;;;;5003733;28;20041;-72
2022/09/30 09:56:17;;;;;;;18.40;13.20;;;12.90;99.90;;;;;;5018476;28;20114;-69
2022/09/30 09:59:07;;;;;;;17.08;12.30;;;13.10;99.90;;;;;;5033176;28;20466;-69
2022/09/30 10:01:33;;;;;;;;;;;13.30;99.90;;;;;;5041931;28;20048;-69
2022/09/30 10:04:14;;;;;;;21.48;11.88;;;13.40;99.90;;;;;;5052703;28;19948;-68
2022/09/30 10:06:49;;;;;;;14.65;10.80;;;13.60;99.90;;;;;;5053264;28;20032;-68
2022/09/30 10:09:22;;;;;;;14.82;10.90;;;13.70;99.90;;;;;;5052478;28;20032;-71
2022/09/30 10:11:48;;;;;;;14.52;10.20;;;13.90;99.90;;;;;;5053232;28;20537;-68
2022/09/30 10:14:20;;;;;;;11.73;9.73;;;13.90;99.90;;;;;;5050003;28;20104;-72
2022/09/30 10:16:46;;;;;;;24.30;11.60;;;13.90;99.90;;;;;;5046953;28;20036;-68
2022/09/30 10:19:25;;;;;;;21.88;12.88;;;13.90;99.90;;;;;;5052498;28;20029;-68
2022/09/30 10:22:11;;;;;;;14.40;10.88;;;13.90;99.90;;;;;;5052946;28;20035;-69
2022/09/30 10:24:38;;;;;;;13.48;9.52;;;14.10;99.90;;;;;;5051481;28;20055;-71
2022/09/30 10:27:24;;;;;;;12.68;8.80;;;14.20;99.90;;;;;;5047443;28;20087;-68
2022/09/30 10:29:49;;;;;;;8.60;7.05;;;14.30;99.90;;;;;;5046621;28;20029;-68
2022/09/30 10:32:15;;;;;;;11.70;8.95;;;14.30;99.90;;;;;;5052167;28;20362;-72
2022/09/30 10:34:43;;;;;;;9.27;7.63;;;14.50;99.90;;;;;;5051331;28;20029;-69
2022/09/30 10:37:29;;;;;;;10.50;7.97;;;14.70;99.90;;;;;;5052653;28;20025;-69
2022/09/30 10:40:05;;;;;;;13.32;8.90;;;14.80;99.90;;;;;;5051400;28;20064;-66
2022/09/30 10:42:33;;;;;;;10.70;7.18;;;14.90;99.90;;;;;;5051354;28;20119;-68
2022/09/30 10:45:28;;;;;;;13.98;7.78;;;14.90;99.90;;;;;;5046179;28;20025;-68
2022/09/30 10:47:55;;;;;;;10.07;6.95;;;14.90;99.90;;;;;;5044151;28;20044;-68
2022/09/30 10:50:25;;;;;;;6.40;4.93;;;15.00;99.90;;;;;;5051190;28;20110;-69
2022/09/30 10:53:01;;;;;;;6.32;2.15;;;15.10;99.90;;;;;;5052194;28;20029;-69
2022/09/30 10:55:31;;;;;;;3.22;2.47;;;15.30;99.90;;;;;;5051141;28;20098;-69
2022/09/30 10:58:20;;;;;;;5.35;3.05;;;15.40;99.90;;;;;;5044274;28;20413;-67
2022/09/30 11:00:50;;;;;;;5.43;2.60;;;15.60;99.90;;;;;;5032346;28;20033;-68
2022/09/30 11:03:23;;;;;;;5.32;3.78;;;15.70;99.90;;;;;;5031499;28;20036;-72
2022/09/30 11:05:49;;;;;;;5.30;3.20;;;15.80;99.90;;;;;;5032459;28;20037;-68
2022/09/30 11:08:33;;;;;;;5.88;3.40;;;15.80;99.90;;;;;;5045164;28;20116;-71
2022/09/30 11:11:09;;;;;;;4.25;2.70;;;16.00;99.90;;;;;;5052494;28;20108;-68
2022/09/30 11:14:27;;;;;;;6.50;3.05;;;16.10;99.90;;;;;;5050898;28;20159;-68
2022/09/30 11:17:37;;;;;;;6.20;2.35;;;16.30;99.90;;;;;;4997696;28;20068;-68
2022/09/30 11:20:17;;;;;;;7.95;3.53;;;16.30;99.90;;;;;;5022824;28;20029;-68
2022/09/30 11:22:55;;;;;;;5.88;3.40;;;16.30;99.60;;;;;;5051991;28;20059;-69
2022/09/30 11:25:52;;;;;;;4.82;3.10;;;16.30;99.70;;;;;;5050894;28;20053;-68
2022/09/30 11:28:53;;;;;;;4.18;2.65;;;16.40;99.90;;;;;;5047412;28;20053;-72
2022/09/30 11:31:25;;;;;;;6.18;3.25;;;16.50;99.70;;;;;;5051161;28;20462;-68
2022/09/30 11:34:02;;;;;;;5.50;3.08;;;16.90;98.40;;;;;;5051110;28;20345;-68
2022/09/30 11:36:45;;;;;;;3.70;2.63;;;17.10;97.90;;;;;;5051040;28;20121;-68
2022/09/30 11:39:48;;;;;;;3.30;2.08;;;17.20;97.60;;;;;;5050230;28;20021;-69
2022/09/30 11:42:38;;;;;;;4.88;3.00;;;17.50;97.60;;;;;;5043708;28;20108;-72
2022/09/30 11:45:20;;;;;;;5.60;3.10;;;18.10;97.20;;;;;;5041586;28;20143;-69
2022/09/30 11:47:48;;;;;;;4.75;3.63;;;18.50;96.90;;;;;;5031732;28;20037;-68
2022/09/30 11:50:26;;;;;;;5.15;3.28;;;19.10;95.60;;;;;;5044498;28;20386;-73
2022/09/30 11:53:13;;;;;;;4.00;2.55;;;19.20;95.40;;;;;;5054761;28;20465;-69
2022/09/30 11:56:02;;;;;;;5.50;3.25;;;19.30;95.40;;;;;;5051910;28;20025;-69
2022/09/30 11:58:42;;;;;;;3.92;2.67;;;19.40;94.10;;;;;;5051734;28;20029;-68
2022/09/30 12:01:20;;;;;;;;;;;19.20;93.30;;;;;;5055184;28;20053;-67
2022/09/30 12:03:59;;;;;;;4.15;2.13;;;19.10;93.60;;;;;;5051456;28;19912;-68
2022/09/30 12:06:34;;;;;;;2.90;2.15;;;19.40;92.10;;;;;;5032732;28;20041;-68
2022/09/30 12:09:15;;;;;;;2.92;2.28;;;19.60;90.90;;;;;;5050916;28;20116;-69
2022/09/30 12:11:54;;;;;;;2.88;2.25;;;19.90;89.70;;;;;;5050844;28;20025;-69
2022/09/30 12:14:33;;;;;;;1.80;1.70;;;20.20;88.00;;;;;;5046637;28;20021;-70
2022/09/30 12:17:03;;;;;;;2.78;1.83;;;20.30;86.10;;;;;;5026921;28;20034;-71
2022/09/30 12:19:33;;;;;;;3.33;2.22;;;20.60;84.00;;;;;;5030174;28;20112;-71
2022/09/30 12:22:34;;;;;;;5.55;2.83;;;20.60;84.20;;;;;;5036957;28;20061;-72
2022/09/30 12:25:10;;;;;;;4.43;2.13;;;20.70;84.80;;;;;;5050443;28;20017;-70
2022/09/30 12:27:44;;;;;;;4.25;2.30;;;21.00;86.00;;;;;;5050212;28;20064;-70
2022/09/30 12:30:17;;;;;;;4.65;2.15;;;;;;;;;;5050637;28;20029;-70
2022/09/30 12:33:02;;;;;;;2.47;2.05;;;;;;;;;;5051420;28;20021;-72
2022/09/30 12:35:47;;;;;;;4.97;2.40;;;;;;;;;;5049738;28;20043;-72
2022/09/30 12:38:32;;;;;;;2.50;1.98;;;;;;;;;;5045470;28;20041;-75
2022/09/30 12:41:08;;;;;;;3.00;1.70;;;;;;;;;;5032324;28;20501;-72
2022/09/30 12:43:37;;;;;;;5.38;1.88;;;;;;;;;;5039833;28;20512;-71
2022/09/30 12:46:15;;;;;;;3.37;1.50;;;;;;;;;;5037787;28;20393;-72
2022/09/30 12:48:44;;;;;;;2.53;1.67;;;;;;;;;;5050358;28;20462;-71
2022/09/30 12:51:18;;;;;;;4.22;2.10;;;;;;;;;;5050631;28;20017;-71
2022/09/30 12:53:49;;;;;;;4.28;1.40;;;;;;;;;;5050623;28;20021;-77
2022/09/30 12:56:17;;;;;;;2.30;1.25;;;;;;;;;;5042742;28;20032;-80
2022/09/30 12:58:45;;;;;;;2.72;1.52;;;;;;;;;;5030332;28;20034;-71
2022/09/30 13:01:13;;;;;;;5.38;1.90;;;;;;;;;;5038767;28;20021;-71
2022/09/30 13:03:48;;;;;;;3.55;1.70;;;;;;;;;;5049539;28;20082;-70
2022/09/30 13:06:15;;;;;;;3.00;1.45;;;;;;;;;;5032608;28;20025;-78
2022/09/30 13:08:43;;;;;;;6.53;1.70;;;;;;;;;;5050315;28;20017;-70
2022/09/30 13:11:30;;;;;;;7.00;1.42;;;;;;;;;;5050718;28;20025;-70
2022/09/30 13:14:04;;;;;;;2.78;1.55;;;;;;;;;;5032145;28;20029;-71
2022/09/30 13:16:53;;;;;;;3.35;1.33;;;;;;;;;;5029324;28;20462;-67
2022/09/30 13:19:20;;;;;;;3.20;1.75;;;;;;;;;;5022904;28;20033;-66